createdAt,value
2022-12-31T00:00:15.696Z,5.03
2022-12-31T00:02:43.074Z,3.70
2022-12-31T00:05:10.734Z,4.17
2022-12-31T00:10:05.065Z,3.57
2022-12-31T00:12:32.472Z,3.70
2022-12-31T00:14:59.698Z,3.53
2022-12-31T00:17:26.863Z,5.63
2022-12-31T00:19:53.978Z,3.00
2022-12-31T00:22:21.168Z,4.37
2022-12-31T00:24:48.345Z,4.53
2022-12-31T00:27:16.321Z,3.87
2022-12-31T00:29:43.462Z,2.50
2022-12-31T00:32:10.621Z,3.60
2022-12-31T00:34:37.742Z,5.27
2022-12-31T00:37:04.922Z,3.50
2022-12-31T00:39:32.090Z,5.40
2022-12-31T00:41:59.258Z,4.60
2022-12-31T00:44:26.472Z,3.13
2022-12-31T00:46:54.013Z,3.97
2022-12-31T00:49:21.201Z,4.87
2022-12-31T00:51:48.447Z,4.10
2022-12-31T00:54:15.691Z,6.07
2022-12-31T00:56:42.839Z,4.37
2022-12-31T00:59:09.998Z,8.37
2022-12-31T01:01:38.573Z,4.43
2022-12-31T01:04:08.075Z,4.37
2022-12-31T01:06:35.341Z,3.30
2022-12-31T01:09:02.529Z,5.17
2022-12-31T01:11:29.817Z,5.23
2022-12-31T01:13:58.722Z,4.73
2022-12-31T01:16:30.052Z,3.43
2022-12-31T01:18:59.054Z,3.97
2022-12-31T01:21:26.291Z,5.40
2022-12-31T01:23:53.578Z,3.50
2022-12-31T01:26:21.005Z,2.40
2022-12-31T01:28:48.552Z,2.80
2022-12-31T01:31:17.493Z,2.87
2022-12-31T01:33:44.752Z,2.23
2022-12-31T01:36:26.175Z,3.70
2022-12-31T01:38:54.220Z,3.60
2022-12-31T01:41:22.785Z,2.00
2022-12-31T01:43:51.441Z,2.47
2022-12-31T01:46:38.873Z,1.47
2022-12-31T01:49:08.901Z,2.03
2022-12-31T01:51:36.198Z,1.77
2022-12-31T01:54:05.854Z,1.63
2022-12-31T01:56:33.464Z,0.70
2022-12-31T01:59:00.712Z,2.93
2022-12-31T02:01:32.171Z,1.80
2022-12-31T02:04:00.374Z,1.00
2022-12-31T02:06:33.183Z,1.83
2022-12-31T02:09:00.359Z,1.37
2022-12-31T02:11:29.175Z,1.87
2022-12-31T02:13:58.945Z,2.07
2022-12-31T02:16:29.248Z,3.03
2022-12-31T02:18:59.213Z,2.33
2022-12-31T02:21:44.977Z,2.60
2022-12-31T02:24:23.410Z,2.00
2022-12-31T02:26:56.411Z,2.60
2022-12-31T02:29:32.616Z,3.83
2022-12-31T02:32:02.363Z,1.83
2022-12-31T02:34:34.182Z,2.43
2022-12-31T02:37:04.048Z,2.43
2022-12-31T02:39:32.407Z,1.83
2022-12-31T02:42:00.625Z,2.63
2022-12-31T02:44:29.100Z,3.10
2022-12-31T02:46:56.246Z,2.80
2022-12-31T02:49:38.674Z,3.63
2022-12-31T02:52:11.719Z,3.97
2022-12-31T02:54:41.664Z,4.10
2022-12-31T02:57:25.255Z,2.50
2022-12-31T03:00:15.305Z,4.23
2022-12-31T03:02:44.666Z,3.77
2022-12-31T03:05:13.409Z,2.53
2022-12-31T03:07:41.224Z,2.67
2022-12-31T03:10:08.805Z,1.63
2022-12-31T03:12:48.854Z,2.30
2022-12-31T03:15:20.718Z,2.13
2022-12-31T03:17:55.963Z,4.57
2022-12-31T03:20:43.620Z,5.10
2022-12-31T03:23:11.927Z,3.50
2022-12-31T03:25:39.120Z,3.97
2022-12-31T03:28:10.098Z,3.70
2022-12-31T03:30:38.627Z,4.33
2022-12-31T03:33:06.223Z,2.27
2022-12-31T03:35:34.473Z,5.57
2022-12-31T03:38:01.721Z,3.07
2022-12-31T03:40:29.298Z,2.40
2022-12-31T03:42:56.718Z,3.13
2022-12-31T03:45:23.977Z,3.37
2022-12-31T03:47:51.436Z,3.00
2022-12-31T03:50:19.703Z,2.60
2022-12-31T03:52:46.936Z,3.83
2022-12-31T03:55:14.808Z,3.03
2022-12-31T03:57:42.028Z,4.13
2022-12-31T04:00:10.901Z,2.90
2022-12-31T04:02:38.151Z,4.27
2022-12-31T04:05:05.530Z,3.43
2022-12-31T04:07:32.722Z,3.10
2022-12-31T04:10:00.037Z,5.13
2022-12-31T04:12:27.179Z,2.27
2022-12-31T04:14:54.339Z,2.03
2022-12-31T04:17:21.489Z,3.07
2022-12-31T04:19:48.608Z,2.87
2022-12-31T04:22:15.798Z,4.07
2022-12-31T04:24:43.591Z,3.80
2022-12-31T04:27:11.572Z,1.30
2022-12-31T04:29:38.719Z,2.30
2022-12-31T04:32:06.190Z,3.30
2022-12-31T04:34:33.679Z,3.30
2022-12-31T04:37:00.912Z,1.93
2022-12-31T04:39:28.077Z,1.93
2022-12-31T04:41:55.627Z,4.30
2022-12-31T04:44:22.846Z,3.30
2022-12-31T04:46:49.950Z,3.27
2022-12-31T04:49:17.173Z,1.10
2022-12-31T04:51:44.336Z,3.10
2022-12-31T04:54:11.516Z,2.93
2022-12-31T04:56:38.787Z,3.00
2022-12-31T04:59:07.268Z,3.80
2022-12-31T05:01:34.494Z,2.17
2022-12-31T05:04:01.693Z,8.07
2022-12-31T05:06:28.880Z,2.67
2022-12-31T05:08:56.069Z,1.90
2022-12-31T05:11:23.258Z,3.77
2022-12-31T05:13:50.397Z,3.57
2022-12-31T05:16:17.565Z,1.63
2022-12-31T05:18:44.724Z,3.47
2022-12-31T05:21:16.149Z,2.90
2022-12-31T05:23:43.346Z,4.13
2022-12-31T05:26:10.441Z,2.27
2022-12-31T05:28:37.565Z,1.73
2022-12-31T05:31:04.813Z,3.77
2022-12-31T05:33:31.959Z,2.50
2022-12-31T05:35:59.147Z,3.07
2022-12-31T05:38:26.590Z,1.63
2022-12-31T05:41:00.902Z,3.00
2022-12-31T05:43:28.063Z,2.97
2022-12-31T05:45:55.295Z,3.10
2022-12-31T05:48:22.516Z,3.93
2022-12-31T05:50:50.215Z,2.10
2022-12-31T05:53:17.516Z,2.30
2022-12-31T05:55:45.851Z,4.67
2022-12-31T05:58:13.025Z,2.33
2022-12-31T06:00:40.239Z,3.27
2022-12-31T06:03:07.469Z,2.90
2022-12-31T06:05:34.686Z,2.17
2022-12-31T06:08:01.778Z,3.00
2022-12-31T06:10:28.912Z,4.13
2022-12-31T06:12:56.303Z,3.80
2022-12-31T06:15:23.466Z,2.33
2022-12-31T06:17:50.659Z,2.10
2022-12-31T06:20:18.510Z,3.00
2022-12-31T06:22:45.670Z,2.50
2022-12-31T06:25:13.018Z,2.57
2022-12-31T06:27:40.161Z,1.57
2022-12-31T06:30:07.885Z,3.83
2022-12-31T06:32:35.129Z,4.23
2022-12-31T06:35:02.300Z,3.27
2022-12-31T06:37:29.408Z,1.93
2022-12-31T06:39:56.525Z,1.70
2022-12-31T06:42:23.708Z,1.77
2022-12-31T06:44:50.838Z,3.70
2022-12-31T06:47:17.989Z,3.97
2022-12-31T06:49:45.130Z,1.90
2022-12-31T06:52:12.249Z,2.20
2022-12-31T06:54:39.557Z,4.00
2022-12-31T06:57:06.931Z,1.40
2022-12-31T06:59:34.315Z,2.63
2022-12-31T07:02:08.614Z,2.87
2022-12-31T07:04:50.428Z,3.60
2022-12-31T07:07:30.049Z,1.90
2022-12-31T07:10:16.033Z,5.67
2022-12-31T07:12:46.247Z,2.37
2022-12-31T07:15:20.585Z,2.03
2022-12-31T07:17:47.672Z,4.00
2022-12-31T07:20:16.760Z,4.73
2022-12-31T07:22:44.225Z,7.30
2022-12-31T07:25:15.558Z,3.07
2022-12-31T07:27:48.526Z,3.30
2022-12-31T07:30:18.482Z,2.17
2022-12-31T07:32:51.593Z,4.13
2022-12-31T07:35:21.498Z,2.70
2022-12-31T07:37:48.650Z,2.80
2022-12-31T07:40:15.764Z,4.63
2022-12-31T07:42:48.914Z,3.73
2022-12-31T07:45:21.217Z,3.63
2022-12-31T07:47:48.524Z,3.73
2022-12-31T07:50:17.513Z,3.83
2022-12-31T07:52:44.909Z,3.53
2022-12-31T07:55:12.077Z,5.60
2022-12-31T07:57:49.333Z,3.07
2022-12-31T08:00:16.688Z,6.00
2022-12-31T08:02:43.809Z,2.60
2022-12-31T08:05:19.758Z,5.03
2022-12-31T08:07:52.405Z,3.47
2022-12-31T08:10:19.796Z,2.57
2022-12-31T08:12:49.866Z,3.77
2022-12-31T08:15:18.348Z,2.00
2022-12-31T08:17:46.084Z,2.97
2022-12-31T08:20:16.993Z,2.53
2022-12-31T08:23:02.678Z,2.77
2022-12-31T08:25:35.919Z,4.57
2022-12-31T08:28:11.909Z,2.00
2022-12-31T08:30:49.443Z,2.00
2022-12-31T08:33:19.748Z,4.53
2022-12-31T08:35:52.725Z,3.10
2022-12-31T08:38:27.500Z,3.40
2022-12-31T08:41:13.534Z,3.33
2022-12-31T08:43:55.938Z,3.73
2022-12-31T08:46:26.928Z,2.97
2022-12-31T08:48:54.172Z,3.23
2022-12-31T08:51:23.007Z,1.93
2022-12-31T08:53:50.651Z,2.20
2022-12-31T08:56:32.470Z,3.63
2022-12-31T08:59:14.737Z,1.80
2022-12-31T09:01:48.110Z,2.80
2022-12-31T09:04:47.670Z,2.00
2022-12-31T09:07:14.900Z,4.47
2022-12-31T09:09:45.059Z,1.53
2022-12-31T09:12:18.937Z,4.10
2022-12-31T09:14:48.612Z,2.83
2022-12-31T09:17:18.598Z,2.87
2022-12-31T09:19:45.815Z,3.30
2022-12-31T09:22:12.986Z,4.33
2022-12-31T09:24:40.332Z,3.40
2022-12-31T09:27:27.636Z,1.47
2022-12-31T09:29:55.258Z,2.10
2022-12-31T09:32:41.554Z,5.53
2022-12-31T09:35:16.085Z,4.43
2022-12-31T09:37:47.482Z,3.20
2022-12-31T09:40:29.940Z,3.63
2022-12-31T09:42:59.882Z,6.47
2022-12-31T09:45:27.211Z,4.23
2022-12-31T09:48:09.594Z,2.90
2022-12-31T09:50:37.698Z,3.67
2022-12-31T09:53:10.643Z,3.03
2022-12-31T09:55:40.729Z,2.57
2022-12-31T09:58:07.812Z,3.03
2022-12-31T10:00:37.642Z,3.27
2022-12-31T10:03:19.747Z,3.23
2022-12-31T10:05:53.447Z,3.30
2022-12-31T10:08:32.727Z,4.30
2022-12-31T10:11:03.482Z,3.33
2022-12-31T10:13:53.721Z,3.37
2022-12-31T10:16:39.806Z,1.70
2022-12-31T10:19:25.482Z,3.93
2022-12-31T10:21:52.595Z,4.43
2022-12-31T10:24:22.522Z,4.30
2022-12-31T10:27:04.822Z,4.23
2022-12-31T10:29:47.015Z,4.77
2022-12-31T10:32:32.786Z,4.53
2022-12-31T10:34:59.939Z,5.60
2022-12-31T10:37:53.515Z,3.47
2022-12-31T10:40:26.902Z,4.35
2022-12-31T10:43:09.051Z,3.67
2022-12-31T10:45:54.751Z,4.35
2022-12-31T10:48:21.912Z,4.32
2022-12-31T10:51:07.882Z,3.10
2022-12-31T10:53:34.989Z,2.87
2022-12-31T10:56:02.139Z,2.17
2022-12-31T10:58:38.512Z,4.25
2022-12-31T11:01:29.045Z,4.05
2022-12-31T11:04:05.342Z,3.42
2022-12-31T11:06:55.642Z,2.30
2022-12-31T11:09:40.285Z,3.92
2022-12-31T11:12:10.266Z,2.38
2022-12-31T11:14:55.921Z,4.80
2022-12-31T11:17:41.735Z,6.68
2022-12-31T11:20:10.154Z,4.07
2022-12-31T11:22:37.326Z,1.35
2022-12-31T11:25:13.738Z,5.63
2022-12-31T11:27:53.157Z,3.83
2022-12-31T11:30:23.743Z,6.30
2022-12-31T11:33:05.962Z,3.72
2022-12-31T11:35:33.126Z,3.40
2022-12-31T11:38:12.178Z,5.03
2022-12-31T11:41:00.905Z,3.50
2022-12-31T11:43:31.454Z,3.13
2022-12-31T11:46:22.111Z,4.45
2022-12-31T11:49:07.242Z,3.15
2022-12-31T11:51:34.330Z,4.18
2022-12-31T11:54:15.824Z,3.78
2022-12-31T11:56:54.509Z,3.70
2022-12-31T11:59:21.694Z,4.78
2022-12-31T12:01:55.781Z,3.85
2022-12-31T12:04:22.941Z,7.70
2022-12-31T12:06:50.309Z,3.67
2022-12-31T12:09:23.123Z,4.18
2022-12-31T12:11:58.320Z,3.38
2022-12-31T12:14:31.471Z,1.50
2022-12-31T12:17:04.816Z,3.75
2022-12-31T12:19:34.347Z,5.07
2022-12-31T12:22:10.129Z,4.32
2022-12-31T12:24:37.321Z,4.78
2022-12-31T12:27:04.853Z,4.68
2022-12-31T12:29:35.478Z,4.72
2022-12-31T12:32:04.150Z,3.05
2022-12-31T12:34:40.151Z,2.45
2022-12-31T12:37:26.672Z,2.58
2022-12-31T12:40:16.859Z,2.47
2022-12-31T12:42:48.039Z,3.58
2022-12-31T12:45:16.811Z,2.00
2022-12-31T12:47:44.459Z,3.00
2022-12-31T12:50:17.139Z,4.78
2022-12-31T12:52:57.815Z,3.80
2022-12-31T12:55:41.558Z,4.97
2022-12-31T12:58:26.749Z,5.53
2022-12-31T13:00:59.905Z,3.85
2022-12-31T13:06:52.373Z,4.07
2022-12-31T13:09:19.477Z,3.60
2022-12-31T13:11:46.608Z,2.63
2022-12-31T13:14:42.892Z,3.05
2022-12-31T13:17:13.058Z,3.65
2022-12-31T13:19:43.045Z,3.38
2022-12-31T13:22:20.784Z,2.63
2022-12-31T13:24:52.897Z,1.92
2022-12-31T13:27:24.772Z,4.97
2022-12-31T13:29:53.172Z,4.22
2022-12-31T13:32:22.811Z,3.90
2022-12-31T13:34:51.605Z,3.10
2022-12-31T13:37:37.536Z,7.22
2022-12-31T13:40:23.498Z,5.60
2022-12-31T13:43:00.438Z,4.28
2022-12-31T13:45:31.397Z,4.32
2022-12-31T13:48:05.628Z,2.38
2022-12-31T13:50:37.071Z,4.32
2022-12-31T13:53:07.884Z,4.22
2022-12-31T13:55:37.857Z,4.18
2022-12-31T13:58:23.878Z,6.40
2022-12-31T14:01:12.731Z,3.27
2022-12-31T14:03:58.758Z,4.65
2022-12-31T14:06:39.079Z,4.20
2022-12-31T14:09:06.725Z,2.33
2022-12-31T14:12:00.195Z,4.13
2022-12-31T14:14:42.146Z,6.75
2022-12-31T14:17:17.560Z,10.40
2022-12-31T14:19:56.718Z,4.53
2022-12-31T14:22:29.879Z,3.87
2022-12-31T14:24:59.217Z,4.70
2022-12-31T14:27:35.477Z,2.53
2022-12-31T14:30:05.400Z,4.97
2022-12-31T14:32:32.523Z,4.95
2022-12-31T14:35:23.066Z,4.37
2022-12-31T14:38:10.452Z,3.33
2022-12-31T14:40:52.462Z,5.20
2022-12-31T14:43:25.769Z,4.70
2022-12-31T14:46:10.568Z,4.13
2022-12-31T14:48:53.671Z,6.33
2022-12-31T14:51:20.959Z,6.90
2022-12-31T14:53:56.837Z,5.87
2022-12-31T14:56:32.242Z,8.60
2022-12-31T14:59:01.321Z,6.03
2022-12-31T15:01:29.110Z,6.60
2022-12-31T15:03:58.006Z,7.23
2022-12-31T15:06:25.119Z,11.63
2022-12-31T15:09:08.244Z,5.20
2022-12-31T15:11:38.761Z,5.27
2022-12-31T15:14:08.908Z,4.73
2022-12-31T15:16:43.256Z,5.47
2022-12-31T15:19:19.713Z,6.57
2022-12-31T15:21:46.840Z,4.33
2022-12-31T15:24:24.929Z,3.80
2022-12-31T15:26:53.657Z,9.07
2022-12-31T15:29:28.626Z,6.97
2022-12-31T15:31:56.066Z,8.17
2022-12-31T15:34:34.785Z,8.63
2022-12-31T15:37:06.227Z,4.63
2022-12-31T15:39:33.329Z,6.20
2022-12-31T15:44:56.007Z,6.43
2022-12-31T15:47:29.375Z,4.20
2022-12-31T15:49:57.902Z,3.70
2022-12-31T15:52:31.108Z,5.27
2022-12-31T15:54:58.818Z,4.23
2022-12-31T15:57:39.794Z,4.77
2022-12-31T16:00:08.841Z,10.87
2022-12-31T16:02:39.027Z,5.43
2022-12-31T16:05:06.459Z,4.67
2022-12-31T16:07:35.287Z,7.47
2022-12-31T16:10:03.394Z,6.47
2022-12-31T16:12:34.365Z,6.73
2022-12-31T16:15:04.987Z,6.90
2022-12-31T16:17:33.819Z,8.50
2022-12-31T16:20:01.821Z,5.30
2022-12-31T16:22:39.093Z,6.93
2022-12-31T16:27:55.078Z,4.40
2022-12-31T16:30:29.944Z,6.07
2022-12-31T16:32:59.439Z,7.20
2022-12-31T16:35:26.579Z,5.40
2022-12-31T16:38:03.804Z,5.90
2022-12-31T16:40:31.117Z,7.43
2022-12-31T16:42:58.337Z,9.70
2022-12-31T16:45:30.927Z,7.73
2022-12-31T16:48:01.791Z,7.30
2022-12-31T16:50:30.201Z,7.93
2022-12-31T16:53:03.792Z,8.50
2022-12-31T16:55:31.615Z,7.27
2022-12-31T16:58:19.564Z,6.43
2022-12-31T17:00:47.154Z,7.07
2022-12-31T17:03:22.358Z,7.40
2022-12-31T17:05:58.677Z,7.30
2022-12-31T17:09:39.681Z,8.53
2022-12-31T17:12:15.921Z,48.17
2022-12-31T17:14:50.693Z,50.33
2022-12-31T17:17:28.473Z,33.23
2022-12-31T17:19:59.387Z,26.03
2022-12-31T17:22:36.718Z,9.67
2022-12-31T17:25:22.808Z,8.17
2022-12-31T17:27:58.978Z,6.13
2022-12-31T17:30:28.881Z,7.67
2022-12-31T17:33:03.057Z,9.63
2022-12-31T17:35:31.343Z,9.90
2022-12-31T17:38:17.276Z,10.10
2022-12-31T17:40:52.864Z,10.03
2022-12-31T17:43:20.850Z,6.20
2022-12-31T17:45:48.790Z,14.33
2022-12-31T17:48:17.274Z,16.00
2022-12-31T17:50:51.481Z,13.13
2022-12-31T17:53:19.155Z,12.87
2022-12-31T17:55:47.801Z,9.90
2022-12-31T17:58:29.302Z,6.67
2022-12-31T18:00:57.665Z,7.40
2022-12-31T18:03:25.014Z,7.23
2022-12-31T18:05:52.177Z,6.57
2022-12-31T18:08:19.265Z,9.73
2022-12-31T18:10:46.717Z,15.23
2022-12-31T18:13:18.615Z,15.10
2022-12-31T18:15:45.842Z,19.17
2022-12-31T18:18:25.589Z,20.17
2022-12-31T18:20:59.216Z,14.37
2022-12-31T18:23:31.338Z,15.83
2022-12-31T18:25:58.519Z,15.63
2022-12-31T18:28:25.661Z,16.93
2022-12-31T18:30:53.026Z,12.17
2022-12-31T18:33:23.728Z,9.33
2022-12-31T18:36:08.869Z,12.33
2022-12-31T18:38:36.928Z,10.13
2022-12-31T18:41:04.449Z,7.37
2022-12-31T18:43:31.595Z,13.00
2022-12-31T18:45:59.204Z,7.63
2022-12-31T18:48:26.446Z,7.67
2022-12-31T18:50:53.666Z,10.87
2022-12-31T18:53:22.318Z,11.43
2022-12-31T18:55:50.957Z,11.83
2022-12-31T18:58:18.367Z,13.97
2022-12-31T19:00:46.389Z,11.80
2022-12-31T19:03:15.200Z,11.57
2022-12-31T19:05:42.499Z,13.43
2022-12-31T19:08:09.606Z,12.20
2022-12-31T19:10:36.748Z,15.20
2022-12-31T19:13:03.998Z,13.47
2022-12-31T19:15:35.833Z,10.93
2022-12-31T19:18:03.433Z,12.73
2022-12-31T19:20:30.773Z,15.73
2022-12-31T19:22:58.522Z,12.70
2022-12-31T19:25:32.527Z,21.40
2022-12-31T19:27:59.945Z,19.57
2022-12-31T19:30:28.635Z,16.33
2022-12-31T19:32:55.947Z,15.03
2022-12-31T19:35:23.910Z,16.87
2022-12-31T19:37:52.022Z,14.37
2022-12-31T19:40:24.006Z,11.37
2022-12-31T19:42:53.300Z,7.67
2022-12-31T19:45:21.248Z,27.63
2022-12-31T19:47:48.624Z,18.57
2022-12-31T19:50:17.869Z,16.80
2022-12-31T19:52:45.720Z,18.90
2022-12-31T19:55:14.129Z,20.00
2022-12-31T19:57:41.831Z,12.87
2022-12-31T20:00:10.788Z,14.53
2022-12-31T20:02:38.311Z,11.87
2022-12-31T20:05:05.731Z,14.07
2022-12-31T20:07:32.944Z,6.83
2022-12-31T20:10:00.092Z,9.00
2022-12-31T20:12:28.494Z,38.97
2022-12-31T20:14:55.583Z,30.93
2022-12-31T20:17:23.308Z,33.97
2022-12-31T20:19:50.467Z,33.07
2022-12-31T20:22:17.687Z,36.63
2022-12-31T20:24:44.835Z,40.20
2022-12-31T20:27:18.121Z,36.83
2022-12-31T20:29:46.081Z,26.10
2022-12-31T20:32:13.162Z,27.43
2022-12-31T20:34:40.316Z,23.97
2022-12-31T20:37:07.440Z,22.10
2022-12-31T20:39:34.567Z,22.77
2022-12-31T20:42:01.742Z,23.00
2022-12-31T20:44:28.961Z,18.07
2022-12-31T20:46:56.162Z,18.63
2022-12-31T20:49:44.367Z,16.93
2022-12-31T20:52:10.351Z,22.73
2022-12-31T20:54:37.537Z,22.97
2022-12-31T20:57:04.738Z,24.67
2022-12-31T20:59:31.859Z,24.37
2022-12-31T21:04:46.917Z,22.60
2022-12-31T21:07:14.219Z,24.33
2022-12-31T21:09:41.319Z,26.10
2022-12-31T21:12:28.410Z,21.80
2022-12-31T21:14:55.619Z,23.10
2022-12-31T21:17:22.848Z,25.67
2022-12-31T21:19:49.927Z,31.63
2022-12-31T21:22:17.102Z,31.37
2022-12-31T21:24:44.260Z,21.97
2022-12-31T21:27:11.418Z,19.40
2022-12-31T21:30:01.588Z,23.87
2022-12-31T21:32:25.912Z,25.17
2022-12-31T21:35:23.168Z,35.23
2022-12-31T21:37:58.293Z,67.80
2022-12-31T21:40:27.238Z,63.00
2022-12-31T21:42:54.353Z,72.20
2022-12-31T21:45:21.468Z,55.37
2022-12-31T21:48:07.391Z,33.27
2022-12-31T21:50:34.779Z,35.17
2022-12-31T21:53:01.864Z,27.43
2022-12-31T21:55:47.805Z,27.33
2022-12-31T21:58:31.742Z,19.33
2022-12-31T22:01:18.766Z,25.30
2022-12-31T22:03:46.395Z,16.40
2022-12-31T22:06:22.295Z,14.60
2022-12-31T22:08:53.781Z,14.50
2022-12-31T22:11:22.273Z,14.20
2022-12-31T22:13:49.844Z,18.93
2022-12-31T22:16:18.455Z,19.10
2022-12-31T22:18:45.585Z,27.77
2022-12-31T22:21:22.261Z,25.40
2022-12-31T22:23:51.914Z,58.50
2022-12-31T22:26:20.071Z,44.57
2022-12-31T22:28:47.495Z,49.27
2022-12-31T22:31:16.210Z,28.50
2022-12-31T22:33:43.978Z,30.23
2022-12-31T22:36:12.812Z,29.90
2022-12-31T22:38:40.263Z,33.80
2022-12-31T22:41:07.631Z,33.53
2022-12-31T22:43:35.829Z,33.80
2022-12-31T22:46:07.131Z,29.70
2022-12-31T22:48:34.432Z,20.67
2022-12-31T22:51:01.604Z,25.93
2022-12-31T22:53:28.738Z,24.03
2022-12-31T22:55:56.120Z,29.57
2022-12-31T22:58:24.074Z,49.53
2022-12-31T23:00:51.310Z,52.60
2022-12-31T23:03:18.547Z,357.33
2022-12-31T23:05:48.072Z,94.43
2022-12-31T23:08:22.378Z,321.80
2022-12-31T23:11:00.803Z,376.30
2022-12-31T23:13:50.936Z,495.83
2022-12-31T23:16:37.507Z,278.00
2022-12-31T23:19:24.040Z,155.60
2022-12-31T23:22:10.016Z,116.50
2022-12-31T23:24:37.282Z,109.60
2022-12-31T23:27:04.869Z,157.53
2022-12-31T23:29:32.091Z,130.97
2022-12-31T23:31:59.257Z,134.00
2022-12-31T23:34:26.433Z,111.10
2022-12-31T23:36:53.573Z,94.27
2022-12-31T23:39:20.727Z,94.80
2022-12-31T23:41:47.926Z,91.27
2022-12-31T23:44:15.057Z,206.57
2022-12-31T23:46:44.271Z,145.87
2022-12-31T23:49:12.253Z,116.67
2022-12-31T23:51:40.226Z,69.40
2022-12-31T23:54:07.637Z,98.13
2022-12-31T23:56:35.119Z,58.13
2022-12-31T23:59:02.259Z,37.37
